Terminal Aerodrome Forecast
Issued by NWS

Current Version | Previous Version | Text Only | Print | Product List | Glossary On
Versions: 1 2 3 4 5 6 7 8 9 10 11 12 13 14 15 16 17 18 19 20 21 22 23 24 25 26 27 28 29
266
FTUS46 KSEW 061130
TAFSEA
TAF
KSEA 061130Z 0612/0718 02005KT 2SM BR BKN001 OVC035
      TEMPO 0612/0613 1/2SM FG VV001
     FM061400 02006KT P6SM SCT010 BKN045
     FM061800 01008KT P6SM SCT050 BKN250
     FM070300 03005KT P6SM SCT250=

USA.gov is the U.S. government's official web portal to all federal, state and local government web resources and services.